sensor_id;sensor_type;location;lat;lon;timestamp;P1;durP1;ratioP1;P2;durP2;ratioP2
3815;SDS011;1923;48.154;11.536;2022-08-25T00:01:49;6.67;;;3.73;;
3815;SDS011;1923;48.154;11.536;2022-08-25T00:04:20;4.60;;;3.40;;
3815;SDS011;1923;48.154;11.536;2022-08-25T00:06:50;6.70;;;3.40;;
3815;SDS011;1923;48.154;11.536;2022-08-25T00:09:27;8.50;;;4.00;;
3815;SDS011;1923;48.154;11.536;2022-08-25T00:11:56;6.57;;;4.20;;
3815;SDS011;1923;48.154;11.536;2022-08-25T00:14:26;7.70;;;3.97;;
3815;SDS011;1923;48.154;11.536;2022-08-25T00:16:57;7.50;;;4.10;;
3815;SDS011;1923;48.154;11.536;2022-08-25T00:19:26;6.67;;;4.13;;
3815;SDS011;1923;48.154;11.536;2022-08-25T00:21:57;5.97;;;3.97;;
3815;SDS011;1923;48.154;11.536;2022-08-25T00:24:26;9.33;;;4.90;;
3815;SDS011;1923;48.154;11.536;2022-08-25T00:26:55;9.40;;;4.40;;
3815;SDS011;1923;48.154;11.536;2022-08-25T00:29:24;4.53;;;3.60;;
3815;SDS011;1923;48.154;11.536;2022-08-25T00:31:53;5.53;;;3.80;;
3815;SDS011;1923;48.154;11.536;2022-08-25T00:34:26;6.77;;;4.30;;
3815;SDS011;1923;48.154;11.536;2022-08-25T00:36:57;6.43;;;4.33;;
3815;SDS011;1923;48.154;11.536;2022-08-25T00:39:25;6.33;;;4.07;;
3815;SDS011;1923;48.154;11.536;2022-08-25T00:41:54;7.20;;;4.53;;
3815;SDS011;1923;48.154;11.536;2022-08-25T00:44:23;6.00;;;4.27;;
3815;SDS011;1923;48.154;11.536;2022-08-25T00:46:53;8.50;;;5.00;;
3815;SDS011;1923;48.154;11.536;2022-08-25T00:49:25;5.40;;;3.60;;
3815;SDS011;1923;48.154;11.536;2022-08-25T00:51:57;5.83;;;4.30;;
3815;SDS011;1923;48.154;11.536;2022-08-25T00:54:30;8.73;;;4.70;;
3815;SDS011;1923;48.154;11.536;2022-08-25T00:57:01;21.23;;;5.70;;
3815;SDS011;1923;48.154;11.536;2022-08-25T00:59:31;8.30;;;4.93;;
3815;SDS011;1923;48.154;11.536;2022-08-25T01:02:01;8.47;;;4.70;;
3815;SDS011;1923;48.154;11.536;2022-08-25T01:04:34;8.00;;;4.87;;
3815;SDS011;1923;48.154;11.536;2022-08-25T01:07:03;9.20;;;5.70;;
3815;SDS011;1923;48.154;11.536;2022-08-25T01:09:40;6.00;;;4.30;;
3815;SDS011;1923;48.154;11.536;2022-08-25T01:12:10;7.57;;;4.60;;
3815;SDS011;1923;48.154;11.536;2022-08-25T01:14:38;9.93;;;5.10;;
3815;SDS011;1923;48.154;11.536;2022-08-25T01:17:06;8.47;;;5.00;;
3815;SDS011;1923;48.154;11.536;2022-08-25T01:19:37;8.30;;;5.13;;
3815;SDS011;1923;48.154;11.536;2022-08-25T01:22:06;8.33;;;4.70;;
3815;SDS011;1923;48.154;11.536;2022-08-25T01:24:36;11.20;;;5.80;;
3815;SDS011;1923;48.154;11.536;2022-08-25T01:27:09;8.67;;;5.50;;
3815;SDS011;1923;48.154;11.536;2022-08-25T01:29:37;11.20;;;5.47;;
3815;SDS011;1923;48.154;11.536;2022-08-25T01:32:06;10.77;;;5.20;;
3815;SDS011;1923;48.154;11.536;2022-08-25T01:34:38;7.77;;;4.30;;
3815;SDS011;1923;48.154;11.536;2022-08-25T01:37:11;8.63;;;5.10;;
3815;SDS011;1923;48.154;11.536;2022-08-25T01:39:41;10.70;;;4.73;;
3815;SDS011;1923;48.154;11.536;2022-08-25T01:42:23;13.63;;;5.97;;
3815;SDS011;1923;48.154;11.536;2022-08-25T01:44:59;12.17;;;5.97;;
3815;SDS011;1923;48.154;11.536;2022-08-25T01:47:28;13.93;;;6.50;;
3815;SDS011;1923;48.154;11.536;2022-08-25T01:49:57;9.33;;;5.57;;
3815;SDS011;1923;48.154;11.536;2022-08-25T01:52:29;11.17;;;6.10;;
3815;SDS011;1923;48.154;11.536;2022-08-25T01:54:59;10.87;;;5.30;;
3815;SDS011;1923;48.154;11.536;2022-08-25T01:57:28;10.97;;;5.57;;
3815;SDS011;1923;48.154;11.536;2022-08-25T01:59:56;9.40;;;5.00;;
3815;SDS011;1923;48.154;11.536;2022-08-25T02:02:25;8.57;;;5.20;;
3815;SDS011;1923;48.154;11.536;2022-08-25T02:04:56;11.37;;;6.20;;
3815;SDS011;1923;48.154;11.536;2022-08-25T02:07:25;9.20;;;5.50;;
3815;SDS011;1923;48.154;11.536;2022-08-25T02:09:54;10.83;;;6.33;;
3815;SDS011;1923;48.154;11.536;2022-08-25T02:12:28;13.60;;;6.03;;
3815;SDS011;1923;48.154;11.536;2022-08-25T02:14:57;11.50;;;5.87;;
3815;SDS011;1923;48.154;11.536;2022-08-25T02:17:26;10.60;;;5.60;;
3815;SDS011;1923;48.154;11.536;2022-08-25T02:19:55;9.70;;;5.63;;
3815;SDS011;1923;48.154;11.536;2022-08-25T02:22:23;10.53;;;5.40;;
3815;SDS011;1923;48.154;11.536;2022-08-25T02:24:51;10.00;;;5.53;;
3815;SDS011;1923;48.154;11.536;2022-08-25T02:27:21;7.60;;;5.10;;
3815;SDS011;1923;48.154;11.536;2022-08-25T02:29:49;9.30;;;5.50;;
3815;SDS011;1923;48.154;11.536;2022-08-25T02:32:17;10.23;;;5.40;;
3815;SDS011;1923;48.154;11.536;2022-08-25T02:34:45;9.80;;;5.80;;
3815;SDS011;1923;48.154;11.536;2022-08-25T02:37:14;9.23;;;5.17;;
3815;SDS011;1923;48.154;11.536;2022-08-25T02:39:42;11.37;;;6.43;;
3815;SDS011;1923;48.154;11.536;2022-08-25T02:42:10;10.93;;;6.20;;
3815;SDS011;1923;48.154;11.536;2022-08-25T02:44:40;8.73;;;5.53;;
3815;SDS011;1923;48.154;11.536;2022-08-25T02:47:08;11.57;;;6.23;;
3815;SDS011;1923;48.154;11.536;2022-08-25T02:49:36;9.27;;;5.33;;
3815;SDS011;1923;48.154;11.536;2022-08-25T02:52:04;11.10;;;5.70;;
3815;SDS011;1923;48.154;11.536;2022-08-25T02:54:32;7.83;;;5.13;;
3815;SDS011;1923;48.154;11.536;2022-08-25T02:57:00;15.97;;;6.63;;
3815;SDS011;1923;48.154;11.536;2022-08-25T02:59:28;11.57;;;5.90;;
3815;SDS011;1923;48.154;11.536;2022-08-25T03:01:58;12.70;;;6.80;;
3815;SDS011;1923;48.154;11.536;2022-08-25T03:04:26;10.50;;;6.40;;
3815;SDS011;1923;48.154;11.536;2022-08-25T03:06:54;11.10;;;6.07;;
3815;SDS011;1923;48.154;11.536;2022-08-25T03:09:22;12.17;;;6.00;;
3815;SDS011;1923;48.154;11.536;2022-08-25T03:11:51;12.77;;;6.27;;
3815;SDS011;1923;48.154;11.536;2022-08-25T03:14:19;12.97;;;6.33;;
3815;SDS011;1923;48.154;11.536;2022-08-25T03:16:47;10.80;;;6.60;;
3815;SDS011;1923;48.154;11.536;2022-08-25T03:19:17;12.00;;;6.17;;
3815;SDS011;1923;48.154;11.536;2022-08-25T03:21:45;14.77;;;6.80;;
3815;SDS011;1923;48.154;11.536;2022-08-25T03:24:13;11.47;;;6.10;;
3815;SDS011;1923;48.154;11.536;2022-08-25T03:26:41;13.10;;;6.93;;
3815;SDS011;1923;48.154;11.536;2022-08-25T03:29:21;11.30;;;5.90;;
3815;SDS011;1923;48.154;11.536;2022-08-25T03:31:51;12.10;;;6.80;;
3815;SDS011;1923;48.154;11.536;2022-08-25T03:34:22;15.40;;;6.93;;
3815;SDS011;1923;48.154;11.536;2022-08-25T03:36:51;12.93;;;6.73;;
3815;SDS011;1923;48.154;11.536;2022-08-25T03:39:20;11.70;;;5.80;;
3815;SDS011;1923;48.154;11.536;2022-08-25T03:41:49;11.60;;;7.30;;
3815;SDS011;1923;48.154;11.536;2022-08-25T03:44:18;9.87;;;5.73;;
3815;SDS011;1923;48.154;11.536;2022-08-25T03:46:48;12.17;;;6.60;;
3815;SDS011;1923;48.154;11.536;2022-08-25T03:49:18;10.77;;;6.10;;
3815;SDS011;1923;48.154;11.536;2022-08-25T03:51:51;13.10;;;8.40;;
3815;SDS011;1923;48.154;11.536;2022-08-25T03:54:21;13.30;;;6.90;;
3815;SDS011;1923;48.154;11.536;2022-08-25T03:56:51;11.57;;;7.60;;
3815;SDS011;1923;48.154;11.536;2022-08-25T03:59:19;14.10;;;6.77;;
3815;SDS011;1923;48.154;11.536;2022-08-25T04:01:47;11.93;;;6.57;;
3815;SDS011;1923;48.154;11.536;2022-08-25T04:04:20;11.87;;;6.87;;
3815;SDS011;1923;48.154;11.536;2022-08-25T04:06:48;13.30;;;7.03;;
3815;SDS011;1923;48.154;11.536;2022-08-25T04:09:18;12.13;;;6.53;;
3815;SDS011;1923;48.154;11.536;2022-08-25T04:11:46;15.83;;;7.87;;
3815;SDS011;1923;48.154;11.536;2022-08-25T04:14:18;11.97;;;6.77;;
3815;SDS011;1923;48.154;11.536;2022-08-25T04:16:47;13.07;;;7.00;;
3815;SDS011;1923;48.154;11.536;2022-08-25T04:19:16;10.83;;;7.13;;
3815;SDS011;1923;48.154;11.536;2022-08-25T04:21:45;13.60;;;7.40;;
3815;SDS011;1923;48.154;11.536;2022-08-25T04:24:14;13.03;;;6.83;;
3815;SDS011;1923;48.154;11.536;2022-08-25T04:26:44;17.87;;;7.83;;
3815;SDS011;1923;48.154;11.536;2022-08-25T04:29:14;13.80;;;7.43;;
3815;SDS011;1923;48.154;11.536;2022-08-25T04:31:48;13.30;;;7.10;;
3815;SDS011;1923;48.154;11.536;2022-08-25T04:34:17;13.03;;;6.97;;
3815;SDS011;1923;48.154;11.536;2022-08-25T04:36:57;11.50;;;6.33;;
3815;SDS011;1923;48.154;11.536;2022-08-25T04:39:27;16.53;;;7.97;;
3815;SDS011;1923;48.154;11.536;2022-08-25T04:41:55;13.60;;;6.90;;
3815;SDS011;1923;48.154;11.536;2022-08-25T04:44:25;10.60;;;7.07;;
3815;SDS011;1923;48.154;11.536;2022-08-25T04:46:54;11.10;;;6.10;;
3815;SDS011;1923;48.154;11.536;2022-08-25T04:49:22;13.13;;;7.00;;
3815;SDS011;1923;48.154;11.536;2022-08-25T04:51:50;12.83;;;6.73;;
3815;SDS011;1923;48.154;11.536;2022-08-25T04:54:18;15.17;;;7.17;;
3815;SDS011;1923;48.154;11.536;2022-08-25T04:56:50;18.17;;;6.97;;
3815;SDS011;1923;48.154;11.536;2022-08-25T04:59:23;12.83;;;7.20;;
3815;SDS011;1923;48.154;11.536;2022-08-25T05:01:55;23.83;;;8.43;;
3815;SDS011;1923;48.154;11.536;2022-08-25T05:04:27;13.77;;;7.60;;
3815;SDS011;1923;48.154;11.536;2022-08-25T05:06:55;17.60;;;7.10;;
3815;SDS011;1923;48.154;11.536;2022-08-25T05:09:24;15.13;;;7.33;;
3815;SDS011;1923;48.154;11.536;2022-08-25T05:11:54;12.73;;;6.80;;
3815;SDS011;1923;48.154;11.536;2022-08-25T05:14:22;13.20;;;6.70;;
3815;SDS011;1923;48.154;11.536;2022-08-25T05:16:52;13.13;;;6.80;;
3815;SDS011;1923;48.154;11.536;2022-08-25T05:19:21;10.00;;;5.93;;
3815;SDS011;1923;48.154;11.536;2022-08-25T05:21:50;14.07;;;7.53;;
3815;SDS011;1923;48.154;11.536;2022-08-25T05:24:19;13.70;;;7.40;;
3815;SDS011;1923;48.154;11.536;2022-08-25T05:26:48;14.90;;;6.70;;
3815;SDS011;1923;48.154;11.536;2022-08-25T05:29:17;14.33;;;7.10;;
3815;SDS011;1923;48.154;11.536;2022-08-25T05:31:45;11.30;;;6.60;;
3815;SDS011;1923;48.154;11.536;2022-08-25T05:34:16;16.80;;;7.57;;
3815;SDS011;1923;48.154;11.536;2022-08-25T05:36:45;13.83;;;7.50;;
3815;SDS011;1923;48.154;11.536;2022-08-25T05:39:13;13.57;;;6.90;;
3815;SDS011;1923;48.154;11.536;2022-08-25T05:41:41;11.53;;;7.20;;
3815;SDS011;1923;48.154;11.536;2022-08-25T05:44:09;12.47;;;6.97;;
3815;SDS011;1923;48.154;11.536;2022-08-25T05:46:39;14.40;;;7.60;;
3815;SDS011;1923;48.154;11.536;2022-08-25T05:49:07;14.93;;;7.37;;
3815;SDS011;1923;48.154;11.536;2022-08-25T05:51:35;17.70;;;7.90;;
3815;SDS011;1923;48.154;11.536;2022-08-25T05:54:03;12.90;;;6.67;;
3815;SDS011;1923;48.154;11.536;2022-08-25T05:56:32;14.27;;;7.17;;
3815;SDS011;1923;48.154;11.536;2022-08-25T05:59:00;12.10;;;6.40;;
3815;SDS011;1923;48.154;11.536;2022-08-25T06:01:34;12.97;;;7.30;;
3815;SDS011;1923;48.154;11.536;2022-08-25T06:04:21;16.37;;;8.70;;
3815;SDS011;1923;48.154;11.536;2022-08-25T06:06:49;14.90;;;7.67;;
3815;SDS011;1923;48.154;11.536;2022-08-25T06:09:19;15.00;;;7.73;;
3815;SDS011;1923;48.154;11.536;2022-08-25T06:11:47;14.07;;;7.60;;
3815;SDS011;1923;48.154;11.536;2022-08-25T06:14:20;13.70;;;7.50;;
3815;SDS011;1923;48.154;11.536;2022-08-25T06:16:48;12.20;;;7.37;;
3815;SDS011;1923;48.154;11.536;2022-08-25T06:19:17;14.03;;;7.37;;
3815;SDS011;1923;48.154;11.536;2022-08-25T06:21:47;11.90;;;6.57;;
3815;SDS011;1923;48.154;11.536;2022-08-25T06:24:16;13.57;;;7.00;;
3815;SDS011;1923;48.154;11.536;2022-08-25T06:26:44;15.13;;;7.33;;
3815;SDS011;1923;48.154;11.536;2022-08-25T06:29:12;14.10;;;7.47;;
3815;SDS011;1923;48.154;11.536;2022-08-25T06:31:41;12.90;;;5.93;;
3815;SDS011;1923;48.154;11.536;2022-08-25T06:34:09;10.23;;;5.97;;
3815;SDS011;1923;48.154;11.536;2022-08-25T06:36:38;12.50;;;6.00;;
3815;SDS011;1923;48.154;11.536;2022-08-25T06:39:07;10.07;;;6.33;;
3815;SDS011;1923;48.154;11.536;2022-08-25T06:41:36;11.47;;;6.43;;
3815;SDS011;1923;48.154;11.536;2022-08-25T06:44:05;10.67;;;6.43;;
3815;SDS011;1923;48.154;11.536;2022-08-25T06:46:33;9.53;;;6.00;;
3815;SDS011;1923;48.154;11.536;2022-08-25T06:49:02;9.47;;;5.67;;
3815;SDS011;1923;48.154;11.536;2022-08-25T06:51:31;12.47;;;4.93;;
3815;SDS011;1923;48.154;11.536;2022-08-25T06:54:01;8.17;;;5.13;;
3815;SDS011;1923;48.154;11.536;2022-08-25T06:56:31;8.40;;;4.40;;
3815;SDS011;1923;48.154;11.536;2022-08-25T06:59:00;8.83;;;4.87;;
3815;SDS011;1923;48.154;11.536;2022-08-25T07:01:28;7.10;;;4.90;;
3815;SDS011;1923;48.154;11.536;2022-08-25T07:03:58;6.67;;;4.67;;
3815;SDS011;1923;48.154;11.536;2022-08-25T07:06:32;7.80;;;4.23;;
3815;SDS011;1923;48.154;11.536;2022-08-25T07:09:02;10.00;;;5.40;;
3815;SDS011;1923;48.154;11.536;2022-08-25T07:11:33;5.80;;;4.00;;
3815;SDS011;1923;48.154;11.536;2022-08-25T07:14:02;10.27;;;5.10;;
3815;SDS011;1923;48.154;11.536;2022-08-25T07:16:32;6.60;;;4.73;;
3815;SDS011;1923;48.154;11.536;2022-08-25T07:19:02;9.37;;;5.50;;
3815;SDS011;1923;48.154;11.536;2022-08-25T07:21:34;8.03;;;4.60;;
3815;SDS011;1923;48.154;11.536;2022-08-25T07:24:04;8.70;;;4.87;;
3815;SDS011;1923;48.154;11.536;2022-08-25T07:26:36;8.50;;;5.80;;
3815;SDS011;1923;48.154;11.536;2022-08-25T07:29:05;9.00;;;5.50;;
3815;SDS011;1923;48.154;11.536;2022-08-25T07:31:36;6.70;;;4.13;;
3815;SDS011;1923;48.154;11.536;2022-08-25T07:34:04;7.63;;;4.80;;
3815;SDS011;1923;48.154;11.536;2022-08-25T07:36:51;10.50;;;5.27;;
3815;SDS011;1923;48.154;11.536;2022-08-25T07:39:20;6.47;;;4.30;;
3815;SDS011;1923;48.154;11.536;2022-08-25T07:41:51;8.63;;;5.00;;
3815;SDS011;1923;48.154;11.536;2022-08-25T07:44:20;8.03;;;4.27;;
3815;SDS011;1923;48.154;11.536;2022-08-25T07:46:53;8.83;;;4.97;;
3815;SDS011;1923;48.154;11.536;2022-08-25T07:49:22;9.63;;;5.93;;
3815;SDS011;1923;48.154;11.536;2022-08-25T07:52:01;7.73;;;4.60;;
3815;SDS011;1923;48.154;11.536;2022-08-25T07:54:32;8.40;;;5.57;;
3815;SDS011;1923;48.154;11.536;2022-08-25T07:57:05;8.00;;;5.13;;
3815;SDS011;1923;48.154;11.536;2022-08-25T07:59:38;8.67;;;4.23;;
3815;SDS011;1923;48.154;11.536;2022-08-25T08:02:07;9.43;;;5.80;;
3815;SDS011;1923;48.154;11.536;2022-08-25T08:04:43;8.13;;;4.90;;
3815;SDS011;1923;48.154;11.536;2022-08-25T08:07:15;7.07;;;4.47;;
3815;SDS011;1923;48.154;11.536;2022-08-25T08:09:45;8.20;;;4.93;;
3815;SDS011;1923;48.154;11.536;2022-08-25T08:12:22;8.53;;;5.27;;
3815;SDS011;1923;48.154;11.536;2022-08-25T08:14:52;10.93;;;4.60;;
3815;SDS011;1923;48.154;11.536;2022-08-25T08:17:20;5.50;;;3.93;;
3815;SDS011;1923;48.154;11.536;2022-08-25T08:19:48;7.50;;;4.63;;
3815;SDS011;1923;48.154;11.536;2022-08-25T08:22:17;8.20;;;4.80;;
3815;SDS011;1923;48.154;11.536;2022-08-25T08:24:45;6.93;;;4.17;;
3815;SDS011;1923;48.154;11.536;2022-08-25T08:27:23;8.20;;;4.50;;
3815;SDS011;1923;48.154;11.536;2022-08-25T08:29:51;10.27;;;6.10;;
3815;SDS011;1923;48.154;11.536;2022-08-25T08:32:20;9.23;;;4.83;;
3815;SDS011;1923;48.154;11.536;2022-08-25T08:35:06;10.07;;;4.97;;
3815;SDS011;1923;48.154;11.536;2022-08-25T08:37:34;13.53;;;5.03;;
3815;SDS011;1923;48.154;11.536;2022-08-25T08:40:08;5.13;;;3.50;;
3815;SDS011;1923;48.154;11.536;2022-08-25T08:42:48;8.33;;;4.10;;
3815;SDS011;1923;48.154;11.536;2022-08-25T08:45:23;8.40;;;4.30;;
3815;SDS011;1923;48.154;11.536;2022-08-25T08:48:15;6.40;;;4.20;;
3815;SDS011;1923;48.154;11.536;2022-08-25T08:50:55;7.23;;;3.70;;
3815;SDS011;1923;48.154;11.536;2022-08-25T08:53:37;7.07;;;3.80;;
3815;SDS011;1923;48.154;11.536;2022-08-25T08:56:10;5.67;;;3.90;;
3815;SDS011;1923;48.154;11.536;2022-08-25T08:58:46;7.17;;;4.40;;
3815;SDS011;1923;48.154;11.536;2022-08-25T09:01:22;7.90;;;4.50;;
3815;SDS011;1923;48.154;11.536;2022-08-25T09:03:53;7.00;;;4.40;;
3815;SDS011;1923;48.154;11.536;2022-08-25T09:06:29;6.03;;;4.57;;
3815;SDS011;1923;48.154;11.536;2022-08-25T09:09:03;5.80;;;3.97;;
3815;SDS011;1923;48.154;11.536;2022-08-25T09:11:37;8.77;;;4.50;;
3815;SDS011;1923;48.154;11.536;2022-08-25T09:14:24;4.90;;;3.60;;
3815;SDS011;1923;48.154;11.536;2022-08-25T09:17:05;9.87;;;4.47;;
3815;SDS011;1923;48.154;11.536;2022-08-25T09:20:01;5.67;;;3.70;;
3815;SDS011;1923;48.154;11.536;2022-08-25T09:22:47;7.70;;;5.03;;
3815;SDS011;1923;48.154;11.536;2022-08-25T09:25:26;7.50;;;4.27;;
3815;SDS011;1923;48.154;11.536;2022-08-25T09:28:20;6.47;;;3.77;;
3815;SDS011;1923;48.154;11.536;2022-08-25T09:30:56;7.13;;;4.53;;
3815;SDS011;1923;48.154;11.536;2022-08-25T09:33:27;6.90;;;4.43;;
3815;SDS011;1923;48.154;11.536;2022-08-25T09:36:01;4.83;;;3.70;;
3815;SDS011;1923;48.154;11.536;2022-08-25T09:38:34;5.63;;;4.07;;
3815;SDS011;1923;48.154;11.536;2022-08-25T09:41:03;9.97;;;4.07;;
3815;SDS011;1923;48.154;11.536;2022-08-25T09:43:33;8.03;;;4.13;;
3815;SDS011;1923;48.154;11.536;2022-08-25T09:46:08;6.03;;;4.17;;
3815;SDS011;1923;48.154;11.536;2022-08-25T09:48:42;5.80;;;3.70;;
3815;SDS011;1923;48.154;11.536;2022-08-25T09:51:23;7.70;;;4.20;;
3815;SDS011;1923;48.154;11.536;2022-08-25T09:53:57;6.50;;;3.33;;
3815;SDS011;1923;48.154;11.536;2022-08-25T09:56:36;7.67;;;3.70;;
3815;SDS011;1923;48.154;11.536;2022-08-25T09:59:20;4.37;;;3.87;;
3815;SDS011;1923;48.154;11.536;2022-08-25T10:02:02;6.43;;;3.53;;
3815;SDS011;1923;48.154;11.536;2022-08-25T10:04:32;5.80;;;3.90;;
3815;SDS011;1923;48.154;11.536;2022-08-25T10:07:03;4.97;;;3.40;;
3815;SDS011;1923;48.154;11.536;2022-08-25T10:09:50;5.00;;;3.20;;
3815;SDS011;1923;48.154;11.536;2022-08-25T10:12:20;4.93;;;3.40;;
3815;SDS011;1923;48.154;11.536;2022-08-25T10:14:53;5.50;;;2.93;;
3815;SDS011;1923;48.154;11.536;2022-08-25T10:17:24;3.97;;;3.20;;
3815;SDS011;1923;48.154;11.536;2022-08-25T10:20:14;4.00;;;2.90;;
3815;SDS011;1923;48.154;11.536;2022-08-25T10:22:45;5.50;;;3.63;;
3815;SDS011;1923;48.154;11.536;2022-08-25T10:25:17;3.23;;;2.93;;
3815;SDS011;1923;48.154;11.536;2022-08-25T10:27:53;6.60;;;3.23;;
3815;SDS011;1923;48.154;11.536;2022-08-25T10:30:39;4.90;;;3.00;;
3815;SDS011;1923;48.154;11.536;2022-08-25T10:33:20;3.67;;;3.10;;
3815;SDS011;1923;48.154;11.536;2022-08-25T10:36:00;4.10;;;2.83;;
3815;SDS011;1923;48.154;11.536;2022-08-25T10:38:35;3.50;;;2.80;;
3815;SDS011;1923;48.154;11.536;2022-08-25T10:44:05;4.00;;;2.77;;
3815;SDS011;1923;48.154;11.536;2022-08-25T10:46:56;4.43;;;2.80;;
3815;SDS011;1923;48.154;11.536;2022-08-25T10:49:39;2.93;;;2.63;;
3815;SDS011;1923;48.154;11.536;2022-08-25T10:52:16;3.87;;;2.60;;
3815;SDS011;1923;48.154;11.536;2022-08-25T10:54:52;2.70;;;2.30;;
3815;SDS011;1923;48.154;11.536;2022-08-25T10:57:27;3.47;;;2.77;;
3815;SDS011;1923;48.154;11.536;2022-08-25T11:00:03;3.87;;;2.80;;
3815;SDS011;1923;48.154;11.536;2022-08-25T11:05:41;5.60;;;3.47;;
3815;SDS011;1923;48.154;11.536;2022-08-25T11:08:14;3.20;;;2.83;;
3815;SDS011;1923;48.154;11.536;2022-08-25T11:10:48;3.50;;;2.93;;
3815;SDS011;1923;48.154;11.536;2022-08-25T11:13:22;4.73;;;3.10;;
3815;SDS011;1923;48.154;11.536;2022-08-25T11:15:59;4.07;;;3.23;;
3815;SDS011;1923;48.154;11.536;2022-08-25T11:18:45;4.13;;;2.97;;
3815;SDS011;1923;48.154;11.536;2022-08-25T11:21:22;6.87;;;3.60;;
3815;SDS011;1923;48.154;11.536;2022-08-25T11:23:55;6.07;;;3.83;;
3815;SDS011;1923;48.154;11.536;2022-08-25T11:26:31;5.07;;;3.30;;
3815;SDS011;1923;48.154;11.536;2022-08-25T11:29:08;4.87;;;3.07;;
3815;SDS011;1923;48.154;11.536;2022-08-25T11:31:41;5.67;;;3.60;;
3815;SDS011;1923;48.154;11.536;2022-08-25T11:34:18;5.63;;;3.30;;
3815;SDS011;1923;48.154;11.536;2022-08-25T11:36:49;7.47;;;4.20;;
3815;SDS011;1923;48.154;11.536;2022-08-25T11:39:25;5.43;;;3.70;;
3815;SDS011;1923;48.154;11.536;2022-08-25T11:42:07;5.80;;;3.77;;
3815;SDS011;1923;48.154;11.536;2022-08-25T11:44:50;7.40;;;3.60;;
3815;SDS011;1923;48.154;11.536;2022-08-25T11:47:37;6.10;;;3.87;;
3815;SDS011;1923;48.154;11.536;2022-08-25T11:50:23;5.43;;;4.00;;
3815;SDS011;1923;48.154;11.536;2022-08-25T11:52:57;5.93;;;4.30;;
3815;SDS011;1923;48.154;11.536;2022-08-25T11:55:44;5.13;;;3.50;;
3815;SDS011;1923;48.154;11.536;2022-08-25T11:58:22;9.20;;;4.10;;
3815;SDS011;1923;48.154;11.536;2022-08-25T12:00:58;6.87;;;4.13;;
3815;SDS011;1923;48.154;11.536;2022-08-25T12:03:50;6.87;;;4.00;;
3815;SDS011;1923;48.154;11.536;2022-08-25T12:06:21;6.10;;;3.43;;
3815;SDS011;1923;48.154;11.536;2022-08-25T12:11:46;6.13;;;4.10;;
3815;SDS011;1923;48.154;11.536;2022-08-25T12:14:33;4.10;;;3.27;;
3815;SDS011;1923;48.154;11.536;2022-08-25T12:17:15;4.57;;;3.60;;
3815;SDS011;1923;48.154;11.536;2022-08-25T12:19:57;8.00;;;3.93;;
3815;SDS011;1923;48.154;11.536;2022-08-25T12:22:42;6.70;;;4.07;;
3815;SDS011;1923;48.154;11.536;2022-08-25T12:25:33;6.37;;;3.87;;
3815;SDS011;1923;48.154;11.536;2022-08-25T12:28:16;6.87;;;4.27;;
3815;SDS011;1923;48.154;11.536;2022-08-25T12:31:24;7.40;;;4.30;;
3815;SDS011;1923;48.154;11.536;2022-08-25T12:34:15;7.63;;;4.37;;
3815;SDS011;1923;48.154;11.536;2022-08-25T12:36:54;4.50;;;2.97;;
3815;SDS011;1923;48.154;11.536;2022-08-25T12:39:28;5.10;;;3.53;;
3815;SDS011;1923;48.154;11.536;2022-08-25T12:42:00;6.93;;;3.73;;
3815;SDS011;1923;48.154;11.536;2022-08-25T12:44:35;5.60;;;3.33;;
3815;SDS011;1923;48.154;11.536;2022-08-25T12:47:12;5.80;;;3.97;;
3815;SDS011;1923;48.154;11.536;2022-08-25T12:53:10;7.67;;;3.90;;
3815;SDS011;1923;48.154;11.536;2022-08-25T12:55:50;7.63;;;4.50;;
3815;SDS011;1923;48.154;11.536;2022-08-25T12:58:27;6.67;;;4.07;;
3815;SDS011;1923;48.154;11.536;2022-08-25T13:01:23;7.97;;;4.60;;
3815;SDS011;1923;48.154;11.536;2022-08-25T13:04:12;5.73;;;3.37;;
3815;SDS011;1923;48.154;11.536;2022-08-25T13:07:01;8.43;;;4.67;;
3815;SDS011;1923;48.154;11.536;2022-08-25T13:09:52;9.07;;;5.03;;
3815;SDS011;1923;48.154;11.536;2022-08-25T13:12:41;8.50;;;4.60;;
3815;SDS011;1923;48.154;11.536;2022-08-25T13:15:24;5.93;;;4.60;;
3815;SDS011;1923;48.154;11.536;2022-08-25T13:20:45;6.60;;;5.10;;
3815;SDS011;1923;48.154;11.536;2022-08-25T13:23:16;6.80;;;5.10;;
3815;SDS011;1923;48.154;11.536;2022-08-25T13:25:49;7.53;;;4.33;;
3815;SDS011;1923;48.154;11.536;2022-08-25T13:28:25;5.30;;;4.00;;
3815;SDS011;1923;48.154;11.536;2022-08-25T13:31:02;6.87;;;4.50;;
3815;SDS011;1923;48.154;11.536;2022-08-25T13:33:32;7.93;;;4.40;;
3815;SDS011;1923;48.154;11.536;2022-08-25T13:36:02;5.73;;;3.63;;
3815;SDS011;1923;48.154;11.536;2022-08-25T13:38:49;6.63;;;4.43;;
3815;SDS011;1923;48.154;11.536;2022-08-25T13:41:19;6.30;;;4.33;;
3815;SDS011;1923;48.154;11.536;2022-08-25T13:43:54;7.00;;;4.30;;
3815;SDS011;1923;48.154;11.536;2022-08-25T13:46:28;9.70;;;3.80;;
3815;SDS011;1923;48.154;11.536;2022-08-25T13:49:01;6.90;;;3.70;;
3815;SDS011;1923;48.154;11.536;2022-08-25T13:51:31;5.30;;;3.47;;
3815;SDS011;1923;48.154;11.536;2022-08-25T13:54:00;6.27;;;5.00;;
3815;SDS011;1923;48.154;11.536;2022-08-25T13:56:31;7.17;;;4.43;;
3815;SDS011;1923;48.154;11.536;2022-08-25T13:59:16;6.80;;;4.03;;
3815;SDS011;1923;48.154;11.536;2022-08-25T14:01:50;6.67;;;4.80;;
3815;SDS011;1923;48.154;11.536;2022-08-25T14:04:23;6.03;;;4.03;;
3815;SDS011;1923;48.154;11.536;2022-08-25T14:09:59;6.70;;;4.20;;
3815;SDS011;1923;48.154;11.536;2022-08-25T14:12:32;9.60;;;4.63;;
3815;SDS011;1923;48.154;11.536;2022-08-25T14:15:07;6.50;;;4.23;;
3815;SDS011;1923;48.154;11.536;2022-08-25T14:17:41;6.67;;;3.73;;
3815;SDS011;1923;48.154;11.536;2022-08-25T14:20:18;5.60;;;4.20;;
3815;SDS011;1923;48.154;11.536;2022-08-25T14:22:53;7.63;;;4.40;;
3815;SDS011;1923;48.154;11.536;2022-08-25T14:25:24;7.87;;;4.90;;
3815;SDS011;1923;48.154;11.536;2022-08-25T14:27:56;7.20;;;4.77;;
3815;SDS011;1923;48.154;11.536;2022-08-25T14:30:38;8.73;;;4.50;;
3815;SDS011;1923;48.154;11.536;2022-08-25T14:33:13;6.43;;;4.50;;
3815;SDS011;1923;48.154;11.536;2022-08-25T14:35:45;6.37;;;4.27;;
3815;SDS011;1923;48.154;11.536;2022-08-25T14:38:16;11.40;;;4.37;;
3815;SDS011;1923;48.154;11.536;2022-08-25T14:40:46;7.07;;;4.37;;
3815;SDS011;1923;48.154;11.536;2022-08-25T14:43:15;7.33;;;4.07;;
3815;SDS011;1923;48.154;11.536;2022-08-25T14:45:49;6.10;;;4.13;;
3815;SDS011;1923;48.154;11.536;2022-08-25T14:48:23;8.07;;;4.63;;
3815;SDS011;1923;48.154;11.536;2022-08-25T14:50:55;9.73;;;4.90;;
3815;SDS011;1923;48.154;11.536;2022-08-25T14:53:25;6.07;;;3.57;;
3815;SDS011;1923;48.154;11.536;2022-08-25T14:55:54;10.33;;;4.37;;
3815;SDS011;1923;48.154;11.536;2022-08-25T14:58:24;7.30;;;4.43;;
3815;SDS011;1923;48.154;11.536;2022-08-25T15:00:59;8.10;;;3.97;;
3815;SDS011;1923;48.154;11.536;2022-08-25T15:03:34;6.07;;;3.77;;
3815;SDS011;1923;48.154;11.536;2022-08-25T15:06:04;11.10;;;5.10;;
3815;SDS011;1923;48.154;11.536;2022-08-25T15:08:36;8.13;;;4.47;;
3815;SDS011;1923;48.154;11.536;2022-08-25T15:11:30;8.73;;;4.70;;
3815;SDS011;1923;48.154;11.536;2022-08-25T15:14:00;9.47;;;4.93;;
3815;SDS011;1923;48.154;11.536;2022-08-25T15:16:30;7.40;;;4.37;;
3815;SDS011;1923;48.154;11.536;2022-08-25T15:19:02;6.63;;;4.07;;
3815;SDS011;1923;48.154;11.536;2022-08-25T15:21:33;7.70;;;4.83;;
3815;SDS011;1923;48.154;11.536;2022-08-25T15:24:04;8.93;;;4.90;;
3815;SDS011;1923;48.154;11.536;2022-08-25T15:26:37;9.20;;;4.97;;
3815;SDS011;1923;48.154;11.536;2022-08-25T15:29:07;10.03;;;4.33;;
3815;SDS011;1923;48.154;11.536;2022-08-25T15:31:35;7.33;;;4.40;;
3815;SDS011;1923;48.154;11.536;2022-08-25T15:34:06;8.77;;;5.37;;
3815;SDS011;1923;48.154;11.536;2022-08-25T15:36:37;12.17;;;4.00;;
3815;SDS011;1923;48.154;11.536;2022-08-25T15:39:06;7.40;;;3.97;;
3815;SDS011;1923;48.154;11.536;2022-08-25T15:41:36;10.97;;;5.20;;
3815;SDS011;1923;48.154;11.536;2022-08-25T15:44:08;8.43;;;4.23;;
3815;SDS011;1923;48.154;11.536;2022-08-25T15:46:38;7.70;;;5.03;;
3815;SDS011;1923;48.154;11.536;2022-08-25T15:49:16;8.83;;;4.40;;